sensor_id;sensor_type;location;lat;lon;timestamp;pressure;altitude;pressure_sealevel;temperature;humidity
8756;BME280;4414;42.670;23.228;2024-02-21T00:01:38;93752.78;;;4.08;73.65
8756;BME280;4414;42.670;23.228;2024-02-21T00:04:04;93753.50;;;4.09;74.88
8756;BME280;4414;42.670;23.228;2024-02-21T00:06:29;93758.09;;;4.08;74.29
8756;BME280;4414;42.670;23.228;2024-02-21T00:08:55;93749.28;;;4.17;74.37
8756;BME280;4414;42.670;23.228;2024-02-21T00:11:20;93750.34;;;4.25;73.84
8756;BME280;4414;42.670;23.228;2024-02-21T00:13:46;93757.06;;;4.20;74.08
8756;BME280;4414;42.670;23.228;2024-02-21T00:16:11;93750.22;;;4.14;73.66
8756;BME280;4414;42.670;23.228;2024-02-21T00:18:36;93748.03;;;4.12;73.98
8756;BME280;4414;42.670;23.228;2024-02-21T00:21:02;93743.28;;;4.02;73.88
8756;BME280;4414;42.670;23.228;2024-02-21T00:23:28;93750.00;;;4.17;74.39
8756;BME280;4414;42.670;23.228;2024-02-21T00:25:55;93749.41;;;4.08;74.65
8756;BME280;4414;42.670;23.228;2024-02-21T00:28:20;93744.56;;;4.06;74.74
8756;BME280;4414;42.670;23.228;2024-02-21T00:30:46;93748.72;;;4.13;74.25
8756;BME280;4414;42.670;23.228;2024-02-21T00:33:13;93743.06;;;4.20;73.64
8756;BME280;4414;42.670;23.228;2024-02-21T00:35:38;93743.00;;;4.14;73.90
8756;BME280;4414;42.670;23.228;2024-02-21T00:38:04;93744.09;;;4.08;73.89
8756;BME280;4414;42.670;23.228;2024-02-21T00:40:29;93750.75;;;4.18;74.35
8756;BME280;4414;42.670;23.228;2024-02-21T00:42:55;93739.28;;;4.26;73.83
8756;BME280;4414;42.670;23.228;2024-02-21T00:45:20;93741.06;;;4.35;73.46
8756;BME280;4414;42.670;23.228;2024-02-21T00:47:46;93733.09;;;4.35;73.61
8756;BME280;4414;42.670;23.228;2024-02-21T00:50:11;93730.72;;;4.37;73.70
8756;BME280;4414;42.670;23.228;2024-02-21T00:52:36;93740.00;;;4.27;73.62
8756;BME280;4414;42.670;23.228;2024-02-21T00:55:02;93731.31;;;4.26;72.65
8756;BME280;4414;42.670;23.228;2024-02-21T00:57:27;93734.94;;;4.29;73.58
8756;BME280;4414;42.670;23.228;2024-02-21T00:59:53;93718.41;;;4.19;73.53
8756;BME280;4414;42.670;23.228;2024-02-21T01:02:18;93725.50;;;4.08;73.88
8756;BME280;4414;42.670;23.228;2024-02-21T01:04:44;93718.72;;;4.07;74.52
8756;BME280;4414;42.670;23.228;2024-02-21T01:07:09;93713.03;;;4.14;73.57
8756;BME280;4414;42.670;23.228;2024-02-21T01:09:35;93715.16;;;4.10;73.23
8756;BME280;4414;42.670;23.228;2024-02-21T01:12:00;93714.50;;;4.15;72.90
8756;BME280;4414;42.670;23.228;2024-02-21T01:14:25;93713.56;;;4.18;73.53
8756;BME280;4414;42.670;23.228;2024-02-21T01:16:51;93709.25;;;4.00;72.86
8756;BME280;4414;42.670;23.228;2024-02-21T01:19:16;93713.06;;;3.99;73.09
8756;BME280;4414;42.670;23.228;2024-02-21T01:21:42;93711.22;;;4.05;72.75
8756;BME280;4414;42.670;23.228;2024-02-21T01:24:07;93711.63;;;3.98;73.39
8756;BME280;4414;42.670;23.228;2024-02-21T01:26:32;93702.34;;;4.08;73.31
8756;BME280;4414;42.670;23.228;2024-02-21T01:28:58;93706.25;;;4.13;73.63
8756;BME280;4414;42.670;23.228;2024-02-21T01:31:23;93710.75;;;4.07;72.70
8756;BME280;4414;42.670;23.228;2024-02-21T01:33:49;93704.38;;;3.99;73.56
8756;BME280;4414;42.670;23.228;2024-02-21T01:36:14;93701.09;;;4.04;73.48
8756;BME280;4414;42.670;23.228;2024-02-21T01:38:40;93689.53;;;4.07;73.91
8756;BME280;4414;42.670;23.228;2024-02-21T01:41:05;93696.31;;;4.08;73.38
8756;BME280;4414;42.670;23.228;2024-02-21T01:43:31;93694.47;;;4.14;73.92
8756;BME280;4414;42.670;23.228;2024-02-21T01:45:57;93695.03;;;4.03;73.36
8756;BME280;4414;42.670;23.228;2024-02-21T01:48:23;93688.34;;;4.08;73.00
8756;BME280;4414;42.670;23.228;2024-02-21T01:50:49;93691.00;;;4.08;73.42
8756;BME280;4414;42.670;23.228;2024-02-21T01:53:21;93684.84;;;4.16;73.16
8756;BME280;4414;42.670;23.228;2024-02-21T01:55:48;93684.56;;;4.14;72.56
8756;BME280;4414;42.670;23.228;2024-02-21T01:58:14;93679.72;;;4.13;72.32
8756;BME280;4414;42.670;23.228;2024-02-21T02:00:42;93684.63;;;4.20;72.65
8756;BME280;4414;42.670;23.228;2024-02-21T02:03:12;93688.03;;;4.20;73.00
8756;BME280;4414;42.670;23.228;2024-02-21T02:05:47;93692.19;;;4.27;71.90
8756;BME280;4414;42.670;23.228;2024-02-21T02:08:14;93691.59;;;4.17;72.44
8756;BME280;4414;42.670;23.228;2024-02-21T02:10:40;93691.66;;;4.23;72.18
8756;BME280;4414;42.670;23.228;2024-02-21T02:13:06;93684.22;;;4.27;72.09
8756;BME280;4414;42.670;23.228;2024-02-21T02:15:46;93681.78;;;4.23;72.47
8756;BME280;4414;42.670;23.228;2024-02-21T02:18:12;93675.81;;;4.28;71.64
8756;BME280;4414;42.670;23.228;2024-02-21T02:20:38;93674.75;;;4.20;72.49
8756;BME280;4414;42.670;23.228;2024-02-21T02:23:10;93666.59;;;4.24;72.86
8756;BME280;4414;42.670;23.228;2024-02-21T02:25:37;93672.63;;;4.24;72.66
8756;BME280;4414;42.670;23.228;2024-02-21T02:28:06;93666.31;;;4.22;72.19
8756;BME280;4414;42.670;23.228;2024-02-21T02:30:40;93668.72;;;4.20;72.73
8756;BME280;4414;42.670;23.228;2024-02-21T02:33:06;93664.72;;;4.10;72.73
8756;BME280;4414;42.670;23.228;2024-02-21T02:35:32;93661.53;;;4.06;72.63
8756;BME280;4414;42.670;23.228;2024-02-21T02:37:58;93651.19;;;4.08;72.92
8756;BME280;4414;42.670;23.228;2024-02-21T02:40:24;93668.03;;;4.05;73.00
8756;BME280;4414;42.670;23.228;2024-02-21T02:42:50;93662.19;;;4.01;72.90
8756;BME280;4414;42.670;23.228;2024-02-21T02:45:17;93662.91;;;4.01;72.65
8756;BME280;4414;42.670;23.228;2024-02-21T02:47:44;93657.53;;;3.96;72.06
8756;BME280;4414;42.670;23.228;2024-02-21T02:50:11;93658.94;;;3.91;72.97
8756;BME280;4414;42.670;23.228;2024-02-21T02:52:36;93670.63;;;3.99;71.67
8756;BME280;4414;42.670;23.228;2024-02-21T02:55:02;93673.19;;;3.94;72.94
8756;BME280;4414;42.670;23.228;2024-02-21T02:57:27;93671.56;;;3.96;72.83
8756;BME280;4414;42.670;23.228;2024-02-21T02:59:53;93669.59;;;3.97;73.09
8756;BME280;4414;42.670;23.228;2024-02-21T03:02:18;93670.13;;;4.01;73.19
8756;BME280;4414;42.670;23.228;2024-02-21T03:04:44;93665.88;;;3.89;72.87
8756;BME280;4414;42.670;23.228;2024-02-21T03:07:10;93670.28;;;3.92;73.68
8756;BME280;4414;42.670;23.228;2024-02-21T03:09:39;93670.13;;;3.81;73.18
8756;BME280;4414;42.670;23.228;2024-02-21T03:12:05;93671.78;;;3.78;73.27
8756;BME280;4414;42.670;23.228;2024-02-21T03:14:31;93678.38;;;3.83;73.92
8756;BME280;4414;42.670;23.228;2024-02-21T03:17:00;93681.53;;;3.87;73.40
8756;BME280;4414;42.670;23.228;2024-02-21T03:19:26;93674.03;;;3.85;72.87
8756;BME280;4414;42.670;23.228;2024-02-21T03:21:52;93679.63;;;3.87;72.60
8756;BME280;4414;42.670;23.228;2024-02-21T03:24:21;93687.66;;;3.93;73.32
8756;BME280;4414;42.670;23.228;2024-02-21T03:26:47;93685.84;;;3.84;72.94
8756;BME280;4414;42.670;23.228;2024-02-21T03:29:14;93685.13;;;3.84;73.31
8756;BME280;4414;42.670;23.228;2024-02-21T03:31:40;93683.00;;;3.88;73.74
8756;BME280;4414;42.670;23.228;2024-02-21T03:34:05;93678.38;;;3.83;73.44
8756;BME280;4414;42.670;23.228;2024-02-21T03:36:31;93692.28;;;3.78;74.00
8756;BME280;4414;42.670;23.228;2024-02-21T03:38:56;93685.25;;;3.75;74.03
8756;BME280;4414;42.670;23.228;2024-02-21T03:41:22;93687.44;;;3.76;73.25
8756;BME280;4414;42.670;23.228;2024-02-21T03:43:47;93703.00;;;3.69;74.25
8756;BME280;4414;42.670;23.228;2024-02-21T03:46:14;93692.00;;;3.76;74.25
8756;BME280;4414;42.670;23.228;2024-02-21T03:48:39;93697.22;;;3.85;73.79
8756;BME280;4414;42.670;23.228;2024-02-21T03:51:05;93697.47;;;3.87;74.30
8756;BME280;4414;42.670;23.228;2024-02-21T03:53:30;93698.25;;;3.93;73.53
8756;BME280;4414;42.670;23.228;2024-02-21T03:55:56;93697.88;;;4.00;74.00
8756;BME280;4414;42.670;23.228;2024-02-21T03:58:22;93696.50;;;4.04;73.27
8756;BME280;4414;42.670;23.228;2024-02-21T04:00:47;93698.16;;;4.02;72.88
8756;BME280;4414;42.670;23.228;2024-02-21T04:03:13;93693.38;;;4.06;72.85
8756;BME280;4414;42.670;23.228;2024-02-21T04:05:38;93697.75;;;4.09;73.24
8756;BME280;4414;42.670;23.228;2024-02-21T04:08:07;93699.22;;;4.10;72.79
8756;BME280;4414;42.670;23.228;2024-02-21T04:10:33;93699.22;;;4.10;72.99
8756;BME280;4414;42.670;23.228;2024-02-21T04:12:58;93695.56;;;4.07;72.44
8756;BME280;4414;42.670;23.228;2024-02-21T04:15:24;93697.31;;;4.10;71.69
8756;BME280;4414;42.670;23.228;2024-02-21T04:17:49;93686.16;;;4.06;72.34
8756;BME280;4414;42.670;23.228;2024-02-21T04:20:16;93686.44;;;4.08;72.22
8756;BME280;4414;42.670;23.228;2024-02-21T04:22:45;93691.66;;;4.03;72.25
8756;BME280;4414;42.670;23.228;2024-02-21T04:25:11;93682.22;;;4.02;72.27
8756;BME280;4414;42.670;23.228;2024-02-21T04:27:37;93694.03;;;4.01;72.86
8756;BME280;4414;42.670;23.228;2024-02-21T04:30:03;93688.19;;;3.97;71.43
8756;BME280;4414;42.670;23.228;2024-02-21T04:32:29;93690.03;;;3.91;71.63
8756;BME280;4414;42.670;23.228;2024-02-21T04:34:54;93686.31;;;3.83;72.17
8756;BME280;4414;42.670;23.228;2024-02-21T04:37:20;93689.50;;;3.87;71.77
8756;BME280;4414;42.670;23.228;2024-02-21T04:39:46;93691.63;;;3.83;71.99
8756;BME280;4414;42.670;23.228;2024-02-21T04:42:11;93693.00;;;3.78;73.16
8756;BME280;4414;42.670;23.228;2024-02-21T04:44:37;93698.50;;;3.75;72.48
8756;BME280;4414;42.670;23.228;2024-02-21T04:47:03;93690.03;;;3.71;72.44
8756;BME280;4414;42.670;23.228;2024-02-21T04:49:29;93705.19;;;3.70;72.42
8756;BME280;4414;42.670;23.228;2024-02-21T04:51:55;93701.25;;;3.66;71.76
8756;BME280;4414;42.670;23.228;2024-02-21T04:54:20;93704.94;;;3.54;72.65
8756;BME280;4414;42.670;23.228;2024-02-21T04:56:45;93710.03;;;3.57;72.10
8756;BME280;4414;42.670;23.228;2024-02-21T04:59:11;93704.66;;;3.52;71.46
8756;BME280;4414;42.670;23.228;2024-02-21T05:01:36;93692.88;;;3.38;72.39
8756;BME280;4414;42.670;23.228;2024-02-21T05:04:01;93701.47;;;3.33;72.80
8756;BME280;4414;42.670;23.228;2024-02-21T05:06:27;93696.00;;;3.36;72.85
8756;BME280;4414;42.670;23.228;2024-02-21T05:08:53;93702.94;;;3.34;72.23
8756;BME280;4414;42.670;23.228;2024-02-21T05:11:21;93708.34;;;3.39;72.40
8756;BME280;4414;42.670;23.228;2024-02-21T05:13:46;93704.97;;;3.24;72.89
8756;BME280;4414;42.670;23.228;2024-02-21T05:16:11;93706.97;;;3.29;72.55
8756;BME280;4414;42.670;23.228;2024-02-21T05:18:37;93711.09;;;3.30;72.31
8756;BME280;4414;42.670;23.228;2024-02-21T05:21:02;93711.63;;;3.34;72.93
8756;BME280;4414;42.670;23.228;2024-02-21T05:23:28;93711.91;;;3.36;72.88
8756;BME280;4414;42.670;23.228;2024-02-21T05:25:53;93717.09;;;3.45;72.41
8756;BME280;4414;42.670;23.228;2024-02-21T05:28:18;93711.16;;;3.51;71.79
8756;BME280;4414;42.670;23.228;2024-02-21T05:30:44;93716.28;;;3.54;72.20
8756;BME280;4414;42.670;23.228;2024-02-21T05:33:09;93714.91;;;3.59;71.93
8756;BME280;4414;42.670;23.228;2024-02-21T05:35:35;93710.44;;;3.65;72.03
8756;BME280;4414;42.670;23.228;2024-02-21T05:38:01;93703.84;;;3.60;71.79
8756;BME280;4414;42.670;23.228;2024-02-21T05:40:29;93713.34;;;3.67;72.35
8756;BME280;4414;42.670;23.228;2024-02-21T05:42:54;93713.63;;;3.69;71.68
8756;BME280;4414;42.670;23.228;2024-02-21T05:45:20;93712.16;;;3.68;71.79
8756;BME280;4414;42.670;23.228;2024-02-21T05:47:45;93719.63;;;3.69;72.45
8756;BME280;4414;42.670;23.228;2024-02-21T05:50:11;93716.34;;;3.74;71.59
8756;BME280;4414;42.670;23.228;2024-02-21T05:52:36;93720.72;;;3.77;71.87
8756;BME280;4414;42.670;23.228;2024-02-21T05:55:02;93720.28;;;3.79;71.30
8756;BME280;4414;42.670;23.228;2024-02-21T05:57:28;93728.38;;;3.90;71.31
8756;BME280;4414;42.670;23.228;2024-02-21T05:59:53;93731.78;;;3.90;70.76
8756;BME280;4414;42.670;23.228;2024-02-21T06:02:19;93731.47;;;4.03;70.97
8756;BME280;4414;42.670;23.228;2024-02-21T06:04:45;93733.75;;;4.10;70.14
8756;BME280;4414;42.670;23.228;2024-02-21T06:07:11;93730.97;;;4.19;71.77
8756;BME280;4414;42.670;23.228;2024-02-21T06:09:37;93734.03;;;4.32;70.42
8756;BME280;4414;42.670;23.228;2024-02-21T06:12:02;93739.47;;;4.43;70.32
8756;BME280;4414;42.670;23.228;2024-02-21T06:14:28;93737.84;;;4.46;70.22
8756;BME280;4414;42.670;23.228;2024-02-21T06:16:53;93741.75;;;4.50;69.25
8756;BME280;4414;42.670;23.228;2024-02-21T06:19:19;93743.47;;;4.53;70.05
8756;BME280;4414;42.670;23.228;2024-02-21T06:21:44;93746.94;;;4.59;69.53
8756;BME280;4414;42.670;23.228;2024-02-21T06:24:09;93746.59;;;4.52;69.34
8756;BME280;4414;42.670;23.228;2024-02-21T06:26:35;93752.72;;;4.58;69.74
8756;BME280;4414;42.670;23.228;2024-02-21T06:29:00;93745.34;;;4.67;69.86
8756;BME280;4414;42.670;23.228;2024-02-21T06:31:27;93755.16;;;4.61;69.38
8756;BME280;4414;42.670;23.228;2024-02-21T06:33:53;93758.63;;;4.67;69.68
8756;BME280;4414;42.670;23.228;2024-02-21T06:36:18;93757.44;;;4.68;69.45
8756;BME280;4414;42.670;23.228;2024-02-21T06:38:44;93759.69;;;4.75;70.21
8756;BME280;4414;42.670;23.228;2024-02-21T06:41:17;93766.22;;;4.74;69.31
8756;BME280;4414;42.670;23.228;2024-02-21T06:43:44;93762.34;;;4.75;69.40
8756;BME280;4414;42.670;23.228;2024-02-21T06:46:10;93767.13;;;4.91;69.25
8756;BME280;4414;42.670;23.228;2024-02-21T06:48:35;93766.72;;;4.98;68.30
8756;BME280;4414;42.670;23.228;2024-02-21T06:51:01;93773.16;;;4.92;69.21
8756;BME280;4414;42.670;23.228;2024-02-21T06:53:26;93772.78;;;4.99;69.12
8756;BME280;4414;42.670;23.228;2024-02-21T06:55:51;93772.03;;;4.98;69.61
8756;BME280;4414;42.670;23.228;2024-02-21T06:58:17;93775.44;;;4.99;68.86
8756;BME280;4414;42.670;23.228;2024-02-21T07:00:42;93770.22;;;5.10;68.89
8756;BME280;4414;42.670;23.228;2024-02-21T07:03:08;93767.00;;;5.26;68.60
8756;BME280;4414;42.670;23.228;2024-02-21T07:05:33;93782.09;;;5.35;68.45
8756;BME280;4414;42.670;23.228;2024-02-21T07:07:59;93781.44;;;5.45;68.19
8756;BME280;4414;42.670;23.228;2024-02-21T07:10:25;93783.59;;;5.41;68.55
8756;BME280;4414;42.670;23.228;2024-02-21T07:12:50;93776.19;;;5.51;67.74
8756;BME280;4414;42.670;23.228;2024-02-21T07:15:17;93777.00;;;5.57;67.12
8756;BME280;4414;42.670;23.228;2024-02-21T07:17:42;93771.84;;;5.53;67.94
8756;BME280;4414;42.670;23.228;2024-02-21T07:20:08;93776.50;;;5.58;67.07
8756;BME280;4414;42.670;23.228;2024-02-21T07:22:34;93780.63;;;5.59;67.31
8756;BME280;4414;42.670;23.228;2024-02-21T07:24:59;93777.31;;;5.39;68.27
8756;BME280;4414;42.670;23.228;2024-02-21T07:27:24;93779.22;;;5.38;67.59
8756;BME280;4414;42.670;23.228;2024-02-21T07:29:53;93786.72;;;5.40;67.15
8756;BME280;4414;42.670;23.228;2024-02-21T07:32:19;93781.63;;;5.62;68.27
8756;BME280;4414;42.670;23.228;2024-02-21T07:34:44;93780.84;;;5.56;67.15
8756;BME280;4414;42.670;23.228;2024-02-21T07:37:10;93783.03;;;5.57;66.97
8756;BME280;4414;42.670;23.228;2024-02-21T07:39:36;93788.22;;;5.72;66.66
8756;BME280;4414;42.670;23.228;2024-02-21T07:42:02;93782.75;;;5.81;66.50
8756;BME280;4414;42.670;23.228;2024-02-21T07:44:28;93775.34;;;5.90;66.86
8756;BME280;4414;42.670;23.228;2024-02-21T07:46:53;93782.38;;;5.93;66.31
8756;BME280;4414;42.670;23.228;2024-02-21T07:49:18;93785.44;;;5.81;66.43
8756;BME280;4414;42.670;23.228;2024-02-21T07:51:44;93786.25;;;5.92;66.42
8756;BME280;4414;42.670;23.228;2024-02-21T07:54:09;93785.34;;;5.75;66.45
8756;BME280;4414;42.670;23.228;2024-02-21T07:56:35;93785.84;;;5.74;66.69
8756;BME280;4414;42.670;23.228;2024-02-21T07:59:13;93777.63;;;5.77;67.24
8756;BME280;4414;42.670;23.228;2024-02-21T08:01:41;93774.41;;;5.93;66.28
8756;BME280;4414;42.670;23.228;2024-02-21T08:04:07;93776.72;;;6.12;66.56
8756;BME280;4414;42.670;23.228;2024-02-21T08:06:32;93781.06;;;6.09;66.09
8756;BME280;4414;42.670;23.228;2024-02-21T08:08:57;93769.28;;;5.90;65.52
8756;BME280;4414;42.670;23.228;2024-02-21T08:11:23;93772.56;;;6.05;65.85
8756;BME280;4414;42.670;23.228;2024-02-21T08:13:48;93778.56;;;6.00;65.36
8756;BME280;4414;42.670;23.228;2024-02-21T08:16:14;93770.16;;;6.07;65.36
8756;BME280;4414;42.670;23.228;2024-02-21T08:18:39;93780.66;;;6.22;63.53
8756;BME280;4414;42.670;23.228;2024-02-21T08:21:05;93781.09;;;6.15;63.47
8756;BME280;4414;42.670;23.228;2024-02-21T08:23:30;93775.63;;;6.29;63.70
8756;BME280;4414;42.670;23.228;2024-02-21T08:25:59;93782.34;;;6.61;62.00
8756;BME280;4414;42.670;23.228;2024-02-21T08:28:25;93778.50;;;6.68;59.49
8756;BME280;4414;42.670;23.228;2024-02-21T08:30:50;93779.03;;;6.77;59.89
8756;BME280;4414;42.670;23.228;2024-02-21T08:33:15;93772.94;;;6.71;61.69
8756;BME280;4414;42.670;23.228;2024-02-21T08:35:44;93775.75;;;6.51;62.55
8756;BME280;4414;42.670;23.228;2024-02-21T08:38:09;93781.66;;;6.66;62.49
8756;BME280;4414;42.670;23.228;2024-02-21T08:40:36;93776.81;;;6.65;60.61
8756;BME280;4414;42.670;23.228;2024-02-21T08:43:02;93780.63;;;6.58;61.35
8756;BME280;4414;42.670;23.228;2024-02-21T08:45:27;93778.25;;;6.66;60.64
8756;BME280;4414;42.670;23.228;2024-02-21T08:47:52;93778.50;;;6.68;61.79
8756;BME280;4414;42.670;23.228;2024-02-21T08:50:18;93775.75;;;6.51;62.20
8756;BME280;4414;42.670;23.228;2024-02-21T08:52:43;93783.81;;;6.62;61.70
8756;BME280;4414;42.670;23.228;2024-02-21T08:55:09;93786.31;;;6.77;60.53
8756;BME280;4414;42.670;23.228;2024-02-21T08:57:34;93786.72;;;6.64;61.16
8756;BME280;4414;42.670;23.228;2024-02-21T09:00:04;93787.00;;;6.72;60.58
8756;BME280;4414;42.670;23.228;2024-02-21T09:02:35;93790.91;;;6.76;61.99
8756;BME280;4414;42.670;23.228;2024-02-21T09:05:02;93790.66;;;6.74;61.81
8756;BME280;4414;42.670;23.228;2024-02-21T09:07:28;93787.41;;;6.59;62.14
8756;BME280;4414;42.670;23.228;2024-02-21T09:09:53;93783.31;;;6.58;62.77
8756;BME280;4414;42.670;23.228;2024-02-21T09:12:18;93792.53;;;6.63;63.07
8756;BME280;4414;42.670;23.228;2024-02-21T09:14:44;93791.06;;;6.56;62.54
8756;BME280;4414;42.670;23.228;2024-02-21T09:17:10;93784.97;;;6.56;63.10
8756;BME280;4414;42.670;23.228;2024-02-21T09:19:37;93777.09;;;6.78;62.42
8756;BME280;4414;42.670;23.228;2024-02-21T09:22:03;93787.84;;;6.95;60.61
8756;BME280;4414;42.670;23.228;2024-02-21T09:24:28;93791.50;;;6.97;60.98
8756;BME280;4414;42.670;23.228;2024-02-21T09:26:54;93787.03;;;6.77;61.55
8756;BME280;4414;42.670;23.228;2024-02-21T09:29:19;93783.16;;;6.78;61.30
8756;BME280;4414;42.670;23.228;2024-02-21T09:31:45;93792.44;;;6.94;61.15
8756;BME280;4414;42.670;23.228;2024-02-21T09:34:10;93788.06;;;6.91;61.15
8756;BME280;4414;42.670;23.228;2024-02-21T09:36:36;93788.09;;;6.97;61.04
8756;BME280;4414;42.670;23.228;2024-02-21T09:39:02;93783.03;;;7.10;61.24
8756;BME280;4414;42.670;23.228;2024-02-21T09:41:58;93782.81;;;7.13;62.49
8756;BME280;4414;42.670;23.228;2024-02-21T09:44:57;93797.50;;;6.86;62.09
8756;BME280;4414;42.670;23.228;2024-02-21T09:47:32;93786.50;;;6.68;62.92
8756;BME280;4414;42.670;23.228;2024-02-21T09:50:01;93784.84;;;6.76;63.77
8756;BME280;4414;42.670;23.228;2024-02-21T09:52:29;93792.41;;;6.88;61.76
8756;BME280;4414;42.670;23.228;2024-02-21T09:54:57;93790.09;;;7.13;60.35
8756;BME280;4414;42.670;23.228;2024-02-21T09:57:24;93787.19;;;7.22;58.93
8756;BME280;4414;42.670;23.228;2024-02-21T09:59:51;93793.13;;;7.53;57.85
8756;BME280;4414;42.670;23.228;2024-02-21T10:02:17;93777.59;;;7.74;57.62
8756;BME280;4414;42.670;23.228;2024-02-21T10:04:43;93786.34;;;7.80;57.42
8756;BME280;4414;42.670;23.228;2024-02-21T10:07:08;93774.94;;;7.96;57.56
8756;BME280;4414;42.670;23.228;2024-02-21T10:09:34;93777.84;;;8.15;56.26
8756;BME280;4414;42.670;23.228;2024-02-21T10:12:10;93786.34;;;8.30;56.42
8756;BME280;4414;42.670;23.228;2024-02-21T10:14:36;93777.63;;;8.29;55.03
8756;BME280;4414;42.670;23.228;2024-02-21T10:17:01;93780.03;;;8.16;55.36
8756;BME280;4414;42.670;23.228;2024-02-21T10:19:28;93773.25;;;7.93;56.46
8756;BME280;4414;42.670;23.228;2024-02-21T10:24:33;93768.41;;;7.97;56.66
8756;BME280;4414;42.670;23.228;2024-02-21T10:27:03;93766.69;;;8.05;57.46
8756;BME280;4414;42.670;23.228;2024-02-21T10:29:30;93754.31;;;8.13;55.28
8756;BME280;4414;42.670;23.228;2024-02-21T10:32:08;93738.72;;;8.23;55.33
8756;BME280;4414;42.670;23.228;2024-02-21T10:34:35;93735.59;;;8.35;53.84
8756;BME280;4414;42.670;23.228;2024-02-21T10:37:05;93732.91;;;8.35;54.20
8756;BME280;4414;42.670;23.228;2024-02-21T10:39:41;93721.22;;;8.38;53.28
8756;BME280;4414;42.670;23.228;2024-02-21T10:42:07;93723.75;;;8.83;52.44
8756;BME280;4414;42.670;23.228;2024-02-21T10:44:39;93720.25;;;9.04;50.97
8756;BME280;4414;42.670;23.228;2024-02-21T10:47:08;93709.50;;;9.10;52.10
8756;BME280;4414;42.670;23.228;2024-02-21T10:49:38;93722.91;;;9.10;50.52
8756;BME280;4414;42.670;23.228;2024-02-21T10:52:20;93710.69;;;8.68;50.97
8756;BME280;4414;42.670;23.228;2024-02-21T10:55:03;93701.97;;;8.56;50.84
8756;BME280;4414;42.670;23.228;2024-02-21T10:57:31;93701.28;;;8.45;51.60
8756;BME280;4414;42.670;23.228;2024-02-21T11:00:07;93697.13;;;8.55;52.25
8756;BME280;4414;42.670;23.228;2024-02-21T11:02:33;93689.31;;;8.63;50.96
8756;BME280;4414;42.670;23.228;2024-02-21T11:05:00;93691.25;;;8.68;50.76
8756;BME280;4414;42.670;23.228;2024-02-21T11:07:26;93695.16;;;8.61;50.92
8756;BME280;4414;42.670;23.228;2024-02-21T11:09:53;93689.75;;;8.78;51.50
8756;BME280;4414;42.670;23.228;2024-02-21T11:12:23;93686.19;;;9.05;51.28
8756;BME280;4414;42.670;23.228;2024-02-21T11:14:50;93687.06;;;9.24;49.69
8756;BME280;4414;42.670;23.228;2024-02-21T11:19:45;93687.66;;;9.06;49.44
8756;BME280;4414;42.670;23.228;2024-02-21T11:22:15;93684.63;;;8.74;50.82
8756;BME280;4414;42.670;23.228;2024-02-21T11:24:45;93680.31;;;8.60;50.93
8756;BME280;4414;42.670;23.228;2024-02-21T11:27:19;93676.94;;;8.60;49.67
8756;BME280;4414;42.670;23.228;2024-02-21T11:29:55;93689.78;;;8.67;50.82
8756;BME280;4414;42.670;23.228;2024-02-21T11:32:21;93672.84;;;8.47;51.25
8756;BME280;4414;42.670;23.228;2024-02-21T11:34:56;93674.50;;;8.56;51.34
8756;BME280;4414;42.670;23.228;2024-02-21T11:37:27;93677.91;;;8.56;49.89
8756;BME280;4414;42.670;23.228;2024-02-21T11:39:54;93672.84;;;8.47;51.15
8756;BME280;4414;42.670;23.228;2024-02-21T11:42:20;93672.84;;;8.42;51.21
8756;BME280;4414;42.670;23.228;2024-02-21T11:44:45;93668.28;;;8.31;51.00
8756;BME280;4414;42.670;23.228;2024-02-21T11:47:11;93662.22;;;8.25;50.81
8756;BME280;4414;42.670;23.228;2024-02-21T11:49:45;93663.19;;;8.28;50.18
8756;BME280;4414;42.670;23.228;2024-02-21T11:52:14;93658.59;;;8.17;50.53
8756;BME280;4414;42.670;23.228;2024-02-21T11:54:48;93647.94;;;8.01;50.37
8756;BME280;4414;42.670;23.228;2024-02-21T11:57:34;93641.13;;;7.94;51.28
8756;BME280;4414;42.670;23.228;2024-02-21T12:00:18;93650.59;;;8.01;51.22
8756;BME280;4414;42.670;23.228;2024-02-21T12:02:47;93651.09;;;7.94;51.99
8756;BME280;4414;42.670;23.228;2024-02-21T12:05:12;93647.72;;;7.82;52.62
8756;BME280;4414;42.670;23.228;2024-02-21T12:07:38;93653.06;;;7.82;53.75
8756;BME280;4414;42.670;23.228;2024-02-21T12:10:10;93648.69;;;7.85;53.16
8756;BME280;4414;42.670;23.228;2024-02-21T12:12:37;93644.78;;;7.80;54.34
8756;BME280;4414;42.670;23.228;2024-02-21T12:15:04;93646.50;;;7.83;53.77
8756;BME280;4414;42.670;23.228;2024-02-21T12:17:30;93643.81;;;7.94;53.54
8756;BME280;4414;42.670;23.228;2024-02-21T12:20:15;93641.59;;;7.98;52.25
8756;BME280;4414;42.670;23.228;2024-02-21T12:22:51;93642.59;;;7.84;52.83
8756;BME280;4414;42.670;23.228;2024-02-21T12:25:28;93636.53;;;7.89;53.40
8756;BME280;4414;42.670;23.228;2024-02-21T12:27:54;93637.72;;;7.94;53.54
8756;BME280;4414;42.670;23.228;2024-02-21T12:30:21;93637.00;;;7.99;54.02
8756;BME280;4414;42.670;23.228;2024-02-21T12:32:47;93634.53;;;8.06;54.43
8756;BME280;4414;42.670;23.228;2024-02-21T12:35:13;93632.09;;;8.14;54.38
8756;BME280;4414;42.670;23.228;2024-02-21T12:37:39;93638.22;;;8.03;54.40
8756;BME280;4414;42.670;23.228;2024-02-21T12:40:06;93636.97;;;8.10;54.30
8756;BME280;4414;42.670;23.228;2024-02-21T12:42:34;93626.00;;;8.24;53.85
8756;BME280;4414;42.670;23.228;2024-02-21T12:45:02;93638.66;;;8.18;54.16
8756;BME280;4414;42.670;23.228;2024-02-21T12:47:29;93629.63;;;8.32;53.79
8756;BME280;4414;42.670;23.228;2024-02-21T12:50:10;93623.97;;;8.52;51.91
8756;BME280;4414;42.670;23.228;2024-02-21T12:52:52;93630.25;;;8.61;51.80
8756;BME280;4414;42.670;23.228;2024-02-21T12:55:18;93628.34;;;8.55;51.03
8756;BME280;4414;42.670;23.228;2024-02-21T12:57:43;93618.91;;;8.43;51.44
8756;BME280;4414;42.670;23.228;2024-02-21T13:00:09;93619.38;;;8.47;49.97
8756;BME280;4414;42.670;23.228;2024-02-21T13:02:36;93615.63;;;8.67;49.52
8756;BME280;4414;42.670;23.228;2024-02-21T13:05:01;93615.09;;;8.80;50.37
8756;BME280;4414;42.670;23.228;2024-02-21T13:07:28;93611.25;;;8.70;50.74
8756;BME280;4414;42.670;23.228;2024-02-21T13:09:54;93616.69;;;8.53;52.53
8756;BME280;4414;42.670;23.228;2024-02-21T13:12:19;93605.38;;;8.14;55.18
8756;BME280;4414;42.670;23.228;2024-02-21T13:14:45;93609.03;;;8.11;56.11
8756;BME280;4414;42.670;23.228;2024-02-21T13:17:10;93603.47;;;7.98;56.99
8756;BME280;4414;42.670;23.228;2024-02-21T13:19:36;93598.88;;;7.98;57.29
8756;BME280;4414;42.670;23.228;2024-02-21T13:22:01;93599.63;;;7.82;56.28
8756;BME280;4414;42.670;23.228;2024-02-21T13:24:27;93599.44;;;7.63;57.08
8756;BME280;4414;42.670;23.228;2024-02-21T13:26:53;93595.31;;;7.46;57.20